createdAt,value
2019-03-12T00:00:38.684Z,3.50
2019-03-12T00:03:08.476Z,3.47
2019-03-12T00:05:38.519Z,3.33
2019-03-12T00:08:08.476Z,3.87
2019-03-12T00:10:38.246Z,3.73
2019-03-12T00:13:08.163Z,3.33
2019-03-12T00:15:38.053Z,3.60
2019-03-12T00:18:07.868Z,3.50
2019-03-12T00:20:37.707Z,3.23
2019-03-12T00:23:07.704Z,2.93
2019-03-12T00:25:37.594Z,3.00
2019-03-12T00:28:07.461Z,2.63
2019-03-12T00:30:37.258Z,2.90
2019-03-12T00:33:07.012Z,2.50
2019-03-12T00:35:36.904Z,3.03
2019-03-12T00:38:06.729Z,2.83
2019-03-12T00:40:37.773Z,2.77
2019-03-12T00:43:07.559Z,2.40
2019-03-12T00:45:37.472Z,2.70
2019-03-12T00:48:07.406Z,3.03
2019-03-12T00:50:37.323Z,3.07
2019-03-12T00:53:07.388Z,3.10
2019-03-12T00:55:37.140Z,2.77
2019-03-12T00:58:06.856Z,3.03
2019-03-12T01:00:36.910Z,2.93
2019-03-12T01:03:06.623Z,3.20
2019-03-12T01:05:36.527Z,2.53
2019-03-12T01:08:06.334Z,2.70
2019-03-12T01:10:36.149Z,2.87
2019-03-12T01:13:17.860Z,2.63
2019-03-12T01:15:47.742Z,3.07
2019-03-12T01:18:17.767Z,2.97
2019-03-12T01:20:47.618Z,2.40
2019-03-12T01:23:17.489Z,3.13
2019-03-12T01:25:47.309Z,2.77
2019-03-12T01:28:17.076Z,2.67
2019-03-12T01:30:47.000Z,2.80
2019-03-12T01:33:16.650Z,3.37
2019-03-12T01:35:46.576Z,2.50
2019-03-12T01:38:16.442Z,3.07
2019-03-12T01:40:46.204Z,3.07
2019-03-12T01:43:16.028Z,2.80
2019-03-12T01:45:46.015Z,3.07
2019-03-12T01:48:15.733Z,3.00
2019-03-12T01:50:45.449Z,3.07
2019-03-12T01:53:15.452Z,2.40
2019-03-12T01:55:45.156Z,2.90
2019-03-12T01:58:14.915Z,2.87
2019-03-12T02:00:44.978Z,3.00
2019-03-12T02:03:14.842Z,3.00
2019-03-12T02:05:44.659Z,2.53
2019-03-12T02:08:14.524Z,3.50
2019-03-12T02:10:44.168Z,3.10
2019-03-12T02:13:15.016Z,3.13
2019-03-12T02:15:44.975Z,3.13
2019-03-12T02:18:14.784Z,3.00
2019-03-12T02:20:44.549Z,3.30
2019-03-12T02:23:14.796Z,2.80
2019-03-12T02:25:44.636Z,3.10
2019-03-12T02:28:14.412Z,3.20
2019-03-12T02:30:45.484Z,3.53
2019-03-12T02:33:15.454Z,3.00
2019-03-12T02:35:45.331Z,3.27
2019-03-12T02:38:15.341Z,3.23
2019-03-12T02:40:45.120Z,3.77
2019-03-12T02:43:15.056Z,4.13
2019-03-12T02:45:45.037Z,3.80
2019-03-12T02:48:14.769Z,3.70
2019-03-12T02:50:44.571Z,3.90
2019-03-12T02:53:14.557Z,3.87
2019-03-12T02:55:44.430Z,4.07
2019-03-12T02:58:14.325Z,3.87
2019-03-12T03:00:44.348Z,4.23
2019-03-12T03:03:13.955Z,3.83
2019-03-12T03:06:09.623Z,4.73
2019-03-12T03:08:39.525Z,4.20
2019-03-12T03:11:09.321Z,4.30
2019-03-12T03:13:39.170Z,4.30
2019-03-12T03:16:09.856Z,4.30
2019-03-12T03:18:39.616Z,4.40
2019-03-12T03:21:09.380Z,4.00
2019-03-12T03:23:39.236Z,4.07
2019-03-12T03:26:08.982Z,3.80
2019-03-12T03:28:38.894Z,3.70
2019-03-12T03:31:08.669Z,3.13
2019-03-12T03:33:38.617Z,3.73
2019-03-12T03:36:08.500Z,3.37
2019-03-12T03:38:38.419Z,3.20
2019-03-12T03:41:08.784Z,3.13
2019-03-12T03:43:38.431Z,3.47
2019-03-12T03:46:08.242Z,2.93
2019-03-12T03:48:38.105Z,4.43
2019-03-12T03:51:07.966Z,3.50
2019-03-12T03:53:37.794Z,3.13
2019-03-12T03:56:07.629Z,3.27
2019-03-12T03:58:37.562Z,3.17
2019-03-12T04:01:07.585Z,3.00
2019-03-12T04:03:37.274Z,2.70
2019-03-12T04:06:07.023Z,3.10
2019-03-12T04:08:36.685Z,2.47
2019-03-12T04:11:06.510Z,2.57
2019-03-12T04:13:36.325Z,2.77
2019-03-12T04:16:06.344Z,3.10
2019-03-12T04:18:36.260Z,2.80
2019-03-12T04:21:06.172Z,3.50
2019-03-12T04:23:36.124Z,2.73
2019-03-12T04:26:06.114Z,2.37
2019-03-12T04:28:35.824Z,3.07
2019-03-12T04:31:05.771Z,2.37
2019-03-12T04:34:12.415Z,2.23
2019-03-12T04:36:42.270Z,2.10
2019-03-12T04:39:12.017Z,2.20
2019-03-12T04:41:41.770Z,2.23
2019-03-12T04:44:12.141Z,1.40
2019-03-12T04:46:42.102Z,1.43
2019-03-12T04:49:11.927Z,1.60
2019-03-12T04:51:41.880Z,1.20
2019-03-12T04:54:11.623Z,1.20
2019-03-12T04:56:41.439Z,1.17
2019-03-12T04:59:11.426Z,1.17
2019-03-12T05:01:41.281Z,1.00
2019-03-12T05:04:12.159Z,1.73
2019-03-12T05:06:42.034Z,1.10
2019-03-12T05:09:11.758Z,1.53
2019-03-12T05:11:41.661Z,1.57
2019-03-12T05:14:46.368Z,1.40
2019-03-12T05:17:24.011Z,1.60
2019-03-12T05:19:53.984Z,1.47
2019-03-12T05:22:25.175Z,1.50
2019-03-12T05:24:55.073Z,1.53
2019-03-12T05:27:25.203Z,1.30
2019-03-12T05:29:55.008Z,1.73
2019-03-12T05:32:24.942Z,1.90
2019-03-12T05:34:54.767Z,2.20
2019-03-12T05:37:24.598Z,2.23
2019-03-12T05:39:54.446Z,2.10
2019-03-12T05:42:24.088Z,2.50
2019-03-12T05:44:53.917Z,2.17
2019-03-12T05:47:23.882Z,2.13
2019-03-12T05:49:53.650Z,2.03
2019-03-12T05:52:24.464Z,1.57
2019-03-12T05:54:55.880Z,2.27
2019-03-12T05:57:25.631Z,2.13
2019-03-12T05:59:55.443Z,1.97
2019-03-12T06:02:25.231Z,2.30
2019-03-12T06:04:55.495Z,2.23
2019-03-12T06:07:25.413Z,2.03
2019-03-12T06:09:55.375Z,2.07
2019-03-12T06:12:25.261Z,2.00
2019-03-12T06:14:55.183Z,2.00
2019-03-12T06:17:25.063Z,1.70
2019-03-12T06:19:55.612Z,1.40
2019-03-12T06:22:25.560Z,1.27
2019-03-12T06:24:55.221Z,1.00
2019-03-12T06:27:24.953Z,0.93
2019-03-12T06:29:54.801Z,0.63
2019-03-12T06:32:46.616Z,0.47
2019-03-12T06:35:21.617Z,0.53
2019-03-12T06:37:55.869Z,0.60
2019-03-12T06:40:43.518Z,0.60
2019-03-12T06:43:31.031Z,0.50
2019-03-12T06:46:18.768Z,0.63
2019-03-12T06:49:13.428Z,0.90
2019-03-12T06:52:01.302Z,0.50
2019-03-12T06:54:54.252Z,0.90
2019-03-12T06:57:42.941Z,0.50
2019-03-12T07:00:32.359Z,0.40
2019-03-12T07:03:22.053Z,0.73
2019-03-12T07:06:17.205Z,0.50
2019-03-12T07:09:21.290Z,0.60
2019-03-12T07:11:58.839Z,0.80
2019-03-12T07:14:39.520Z,0.50
2019-03-12T07:17:24.824Z,0.40
2019-03-12T07:20:21.797Z,0.40
2019-03-12T07:23:03.224Z,0.47
2019-03-12T07:25:44.900Z,0.30
2019-03-12T07:28:25.371Z,0.40
2019-03-12T07:31:29.121Z,0.40
2019-03-12T07:34:10.208Z,0.60
2019-03-12T07:36:47.396Z,0.50
2019-03-12T07:39:40.678Z,0.53
2019-03-12T07:42:29.522Z,0.80
2019-03-12T07:45:10.910Z,0.73
2019-03-12T07:48:14.987Z,0.57
2019-03-12T07:51:02.604Z,0.90
2019-03-12T07:53:59.290Z,0.90
2019-03-12T07:56:42.158Z,0.73
2019-03-12T07:59:26.755Z,1.00
2019-03-12T08:02:28.094Z,0.60
2019-03-12T08:05:09.757Z,0.90
2019-03-12T08:07:50.615Z,0.83
2019-03-12T08:10:43.578Z,1.33
2019-03-12T08:13:29.003Z,2.00
2019-03-12T08:16:07.220Z,2.20
2019-03-12T08:18:46.148Z,2.33
2019-03-12T08:21:40.737Z,2.60
2019-03-12T08:24:39.590Z,2.67
2019-03-12T08:27:34.244Z,1.97
2019-03-12T08:30:15.890Z,2.37
2019-03-12T08:33:13.806Z,2.20
2019-03-12T08:35:59.433Z,1.60
2019-03-12T08:38:35.301Z,1.60
2019-03-12T08:41:38.774Z,1.47
2019-03-12T08:44:41.329Z,1.30
2019-03-12T08:47:24.503Z,0.90
2019-03-12T08:50:16.136Z,1.00
2019-03-12T08:53:01.716Z,0.87
2019-03-12T08:55:58.570Z,0.70
2019-03-12T08:58:43.634Z,0.80
2019-03-12T09:01:27.547Z,1.00
2019-03-12T09:04:07.015Z,0.60
2019-03-12T09:06:55.598Z,0.80
2019-03-12T09:09:50.057Z,0.63
2019-03-12T09:12:34.318Z,0.77
2019-03-12T09:15:29.535Z,0.40
2019-03-12T09:18:13.678Z,0.60
2019-03-12T09:21:01.031Z,0.30
2019-03-12T09:23:46.395Z,0.30
2019-03-12T09:26:41.463Z,0.50
2019-03-12T09:29:33.119Z,0.60
2019-03-12T09:32:19.627Z,0.30
2019-03-12T09:35:14.632Z,0.50
2019-03-12T09:38:06.175Z,0.40
2019-03-12T09:40:54.100Z,0.53
2019-03-12T09:43:43.996Z,0.30
2019-03-12T09:46:24.843Z,1.03
2019-03-12T09:49:19.848Z,0.80
2019-03-12T09:52:14.557Z,0.30
2019-03-12T09:54:49.683Z,0.40
2019-03-12T09:57:38.557Z,0.40
2019-03-12T10:00:21.592Z,0.60
2019-03-12T10:03:09.284Z,0.20
2019-03-12T10:06:01.050Z,0.40
2019-03-12T10:08:52.932Z,0.30
2019-03-12T10:11:40.498Z,0.47
2019-03-12T10:14:28.269Z,0.77
2019-03-12T10:17:15.432Z,0.40
2019-03-12T10:20:00.696Z,0.30
2019-03-12T10:22:48.265Z,0.50
2019-03-12T10:25:39.067Z,0.67
2019-03-12T10:28:26.612Z,1.20
2019-03-12T10:31:30.295Z,0.83
2019-03-12T10:34:29.646Z,0.80
2019-03-12T10:37:21.611Z,1.40
2019-03-12T10:40:17.076Z,0.93
2019-03-12T10:42:52.736Z,0.80
2019-03-12T10:45:40.387Z,1.10
2019-03-12T10:48:10.750Z,0.70
2019-03-12T10:50:40.571Z,0.90
2019-03-12T10:53:10.777Z,1.10
2019-03-12T10:55:40.651Z,0.67
2019-03-12T10:58:10.398Z,1.33
2019-03-12T11:00:40.828Z,1.00
2019-03-12T11:03:10.583Z,6.17
2019-03-12T11:05:45.790Z,1.30
2019-03-12T11:08:12.152Z,0.90
2019-03-12T11:10:41.980Z,0.73
2019-03-12T11:13:14.648Z,1.10
2019-03-12T11:15:44.768Z,1.20
2019-03-12T11:18:14.615Z,1.27
2019-03-12T11:20:44.419Z,1.13
2019-03-12T11:23:14.243Z,0.60
2019-03-12T11:25:44.076Z,0.80
2019-03-12T11:28:15.441Z,1.27
2019-03-12T11:30:45.254Z,0.90
2019-03-12T11:33:15.114Z,1.57
2019-03-12T11:35:44.979Z,1.90
2019-03-12T11:38:14.803Z,1.33
2019-03-12T11:40:44.724Z,1.23
2019-03-12T11:43:15.088Z,1.83
2019-03-12T11:45:44.991Z,1.50
2019-03-12T11:48:14.924Z,1.33
2019-03-12T11:50:44.748Z,1.30
2019-03-12T11:53:14.580Z,1.27
2019-03-12T11:55:44.487Z,1.10
2019-03-12T11:58:14.444Z,1.70
2019-03-12T12:00:56.368Z,1.53
2019-03-12T12:03:26.265Z,1.70
2019-03-12T12:05:55.913Z,2.00
2019-03-12T12:08:26.130Z,2.10
2019-03-12T12:10:55.756Z,2.10
2019-03-12T12:13:25.458Z,1.60
2019-03-12T12:15:55.439Z,2.10
2019-03-12T12:18:25.303Z,1.60
2019-03-12T12:20:55.151Z,1.50
2019-03-12T12:23:24.950Z,2.43
2019-03-12T12:25:54.731Z,3.07
2019-03-12T12:28:25.778Z,2.47
2019-03-12T12:30:55.707Z,2.83
2019-03-12T12:33:25.499Z,2.37
2019-03-12T12:35:55.280Z,2.60
2019-03-12T12:38:25.256Z,2.77
2019-03-12T12:40:55.181Z,2.90
2019-03-12T12:43:26.428Z,2.60
2019-03-12T12:45:56.326Z,3.07
2019-03-12T12:48:26.226Z,2.43
2019-03-12T12:51:02.899Z,1.60
2019-03-12T12:53:27.560Z,1.27
2019-03-12T12:55:57.318Z,2.13
2019-03-12T12:58:27.252Z,3.20
2019-03-12T13:00:57.210Z,2.80
2019-03-12T13:03:26.996Z,1.50
2019-03-12T13:05:56.789Z,2.00
2019-03-12T13:08:27.109Z,1.90
2019-03-12T13:10:56.988Z,2.50
2019-03-12T13:13:26.828Z,2.40
2019-03-12T13:15:56.560Z,2.10
2019-03-12T13:18:26.642Z,2.00
2019-03-12T13:20:56.294Z,1.67
2019-03-12T13:23:26.142Z,1.47
2019-03-12T13:25:55.909Z,1.50
2019-03-12T13:28:25.838Z,1.60
2019-03-12T13:30:56.981Z,1.23
2019-03-12T13:33:26.886Z,1.30
2019-03-12T13:35:56.737Z,1.40
2019-03-12T13:38:27.175Z,1.40
2019-03-12T13:41:02.669Z,1.40
2019-03-12T13:43:28.929Z,1.57
2019-03-12T13:45:58.921Z,1.10
2019-03-12T13:48:28.642Z,2.00
2019-03-12T13:50:58.542Z,1.93
2019-03-12T13:53:28.490Z,2.17
2019-03-12T13:55:58.538Z,2.30
2019-03-12T13:58:28.437Z,1.00
2019-03-12T14:00:58.497Z,1.80
2019-03-12T14:03:29.580Z,1.50
2019-03-12T14:05:59.419Z,1.20
2019-03-12T14:08:29.216Z,0.80
2019-03-12T14:10:58.972Z,1.20
2019-03-12T14:13:28.850Z,1.10
2019-03-12T14:15:58.676Z,1.60
2019-03-12T14:18:28.605Z,1.13
2019-03-12T14:21:01.980Z,1.07
2019-03-12T14:23:43.325Z,1.13
2019-03-12T14:26:14.253Z,1.10
2019-03-12T14:28:44.323Z,1.13
2019-03-12T14:31:14.201Z,1.13
2019-03-12T14:33:44.381Z,0.90
2019-03-12T14:36:14.181Z,1.00
2019-03-12T14:38:44.169Z,1.20
2019-03-12T14:41:13.997Z,1.23
2019-03-12T14:43:44.012Z,1.50
2019-03-12T14:46:14.290Z,1.53
2019-03-12T14:48:46.045Z,1.60
2019-03-12T14:51:39.482Z,1.40
2019-03-12T14:54:09.550Z,1.50
2019-03-12T14:56:39.320Z,1.70
2019-03-12T14:59:09.183Z,1.80
2019-03-12T15:01:39.237Z,2.10
2019-03-12T15:04:09.184Z,1.70
2019-03-12T15:06:40.257Z,1.40
2019-03-12T15:09:12.722Z,1.37
2019-03-12T15:11:42.594Z,1.40
2019-03-12T15:14:12.796Z,1.60
2019-03-12T15:16:42.694Z,1.40
2019-03-12T15:19:12.381Z,2.27
2019-03-12T15:21:42.174Z,1.87
2019-03-12T15:24:12.241Z,2.20
2019-03-12T15:26:42.131Z,2.80
2019-03-12T15:29:12.192Z,3.23
2019-03-12T15:31:41.829Z,2.20
2019-03-12T15:34:13.128Z,2.93
2019-03-12T15:36:45.350Z,2.27
2019-03-12T15:39:15.457Z,2.20
2019-03-12T15:41:45.862Z,1.90
2019-03-12T15:44:18.952Z,1.63
2019-03-12T15:46:47.661Z,2.50
2019-03-12T15:49:17.511Z,2.03
2019-03-12T15:51:47.224Z,2.10
2019-03-12T15:54:17.051Z,1.57
2019-03-12T15:56:47.039Z,2.00
2019-03-12T15:59:16.981Z,1.87
2019-03-12T16:01:47.050Z,1.53
2019-03-12T16:04:19.192Z,2.27
2019-03-12T16:07:00.773Z,1.50
2019-03-12T16:09:20.492Z,2.00
2019-03-12T16:11:50.347Z,1.33
2019-03-12T16:14:20.148Z,3.30
2019-03-12T16:16:51.327Z,1.70
2019-03-12T16:19:21.172Z,1.30
2019-03-12T16:21:52.286Z,2.23
2019-03-12T16:24:21.982Z,1.30
2019-03-12T16:26:51.813Z,1.30
2019-03-12T16:29:22.765Z,1.17
2019-03-12T16:31:52.550Z,1.10
2019-03-12T16:34:22.345Z,4.93
2019-03-12T16:36:52.086Z,1.67
2019-03-12T16:39:22.615Z,2.40
2019-03-12T16:41:52.478Z,1.70
2019-03-12T16:44:22.363Z,2.30
2019-03-12T16:46:52.266Z,2.20
2019-03-12T16:49:22.143Z,1.97
2019-03-12T16:51:51.998Z,1.60
2019-03-12T16:54:21.837Z,1.70
2019-03-12T16:56:51.661Z,1.83
2019-03-12T16:59:21.742Z,2.30
2019-03-12T17:01:51.611Z,2.33
2019-03-12T17:04:21.261Z,1.60
2019-03-12T17:06:51.141Z,1.50
2019-03-12T17:09:20.999Z,1.10
2019-03-12T17:11:52.066Z,1.40
2019-03-12T17:14:21.782Z,1.10
2019-03-12T17:16:51.693Z,1.40
2019-03-12T17:19:21.465Z,1.20
2019-03-12T17:21:51.309Z,1.40
2019-03-12T17:24:22.586Z,1.07
2019-03-12T17:26:52.464Z,1.43
2019-03-12T17:29:22.404Z,1.50
2019-03-12T17:31:53.575Z,1.20
2019-03-12T17:34:35.224Z,1.60
2019-03-12T17:36:54.780Z,1.93
2019-03-12T17:39:24.668Z,1.57
2019-03-12T17:42:00.062Z,1.00
2019-03-12T17:44:30.031Z,1.20
2019-03-12T17:46:59.686Z,1.30
2019-03-12T17:49:29.662Z,0.80
2019-03-12T17:51:59.403Z,1.00
2019-03-12T17:54:32.106Z,0.87
2019-03-12T17:57:03.668Z,1.00
2019-03-12T17:59:33.363Z,1.10
2019-03-12T18:02:03.080Z,1.03
2019-03-12T18:04:34.160Z,0.97
2019-03-12T18:07:04.148Z,1.20
2019-03-12T18:09:33.848Z,1.10
2019-03-12T18:12:03.949Z,1.03
2019-03-12T18:14:33.686Z,1.47
2019-03-12T18:17:03.480Z,1.17
2019-03-12T18:19:33.448Z,0.90
2019-03-12T18:22:03.304Z,1.50
2019-03-12T18:24:32.935Z,1.20
2019-03-12T18:27:02.657Z,1.30
2019-03-12T18:29:32.503Z,1.53
2019-03-12T18:32:02.187Z,1.00
2019-03-12T18:34:32.055Z,0.87
2019-03-12T18:37:02.168Z,1.00
2019-03-12T18:39:32.016Z,1.10
2019-03-12T18:42:01.822Z,0.90
2019-03-12T18:44:31.583Z,0.97
2019-03-12T18:47:01.609Z,1.00
2019-03-12T18:49:31.381Z,0.87
2019-03-12T18:52:01.416Z,0.90
2019-03-12T18:54:31.489Z,1.20
2019-03-12T18:57:01.586Z,1.10
2019-03-12T18:59:32.573Z,0.80
2019-03-12T19:02:03.653Z,1.40
2019-03-12T19:04:33.539Z,1.13
2019-03-12T19:07:03.657Z,0.90
2019-03-12T19:09:33.623Z,0.90
2019-03-12T19:12:03.501Z,1.00
2019-03-12T19:14:33.339Z,0.97
2019-03-12T19:17:03.459Z,0.97
2019-03-12T19:19:33.270Z,1.50
2019-03-12T19:22:03.292Z,1.30
2019-03-12T19:24:33.079Z,1.07
2019-03-12T19:27:03.676Z,1.70
2019-03-12T19:29:33.432Z,1.50
2019-03-12T19:32:22.138Z,1.30
2019-03-12T19:34:52.000Z,1.30
2019-03-12T19:37:21.999Z,1.67
2019-03-12T19:39:52.159Z,1.50
2019-03-12T19:42:21.892Z,1.33
2019-03-12T19:44:51.762Z,2.20
2019-03-12T19:47:22.737Z,1.63
2019-03-12T19:49:52.419Z,1.60
2019-03-12T19:52:22.152Z,1.20
2019-03-12T19:54:52.103Z,1.37
2019-03-12T19:57:21.973Z,1.37
2019-03-12T19:59:51.789Z,1.83
2019-03-12T20:02:23.130Z,1.73
2019-03-12T20:04:52.966Z,1.90
2019-03-12T20:07:22.767Z,1.60
2019-03-12T20:10:45.117Z,1.83
2019-03-12T20:13:54.799Z,1.87
2019-03-12T20:17:20.525Z,1.90
2019-03-12T20:20:37.018Z,1.63
2019-03-12T20:23:50.907Z,1.50
2019-03-12T20:27:01.225Z,1.33
2019-03-12T20:30:19.774Z,1.83
2019-03-12T20:33:24.237Z,1.80
2019-03-12T20:36:30.386Z,2.07
2019-03-12T20:39:37.201Z,2.33
2019-03-12T20:43:02.906Z,1.80
2019-03-12T20:46:13.680Z,2.20
2019-03-12T20:49:27.579Z,2.07
2019-03-12T20:52:54.525Z,1.50
2019-03-12T20:56:16.056Z,2.00
2019-03-12T20:59:21.051Z,1.97
2019-03-12T21:02:30.632Z,1.90
2019-03-12T21:05:50.306Z,2.00
2019-03-12T21:09:11.674Z,2.70
2019-03-12T21:12:26.783Z,1.97
2019-03-12T21:15:16.616Z,1.70
2019-03-12T21:18:26.168Z,2.07
2019-03-12T21:22:03.597Z,2.13
2019-03-12T21:24:53.358Z,2.77
2019-03-12T21:27:58.599Z,2.30
2019-03-12T21:30:28.646Z,2.70
2019-03-12T21:32:58.531Z,2.80
2019-03-12T21:35:28.385Z,2.70
2019-03-12T21:37:58.203Z,2.03
2019-03-12T21:40:28.331Z,2.37
2019-03-12T21:42:58.157Z,2.43
2019-03-12T21:45:28.080Z,2.33
2019-03-12T21:47:58.164Z,2.77
2019-03-12T21:50:28.113Z,2.27
2019-03-12T21:52:57.941Z,2.77
2019-03-12T21:55:27.846Z,2.43
2019-03-12T21:57:57.814Z,2.60
2019-03-12T22:00:46.133Z,2.47
2019-03-12T22:03:16.565Z,2.73
2019-03-12T22:05:46.439Z,3.20
2019-03-12T22:08:16.240Z,2.63
2019-03-12T22:10:47.148Z,2.87
2019-03-12T22:13:17.148Z,2.63
2019-03-12T22:15:46.959Z,2.23
2019-03-12T22:18:16.813Z,2.70
2019-03-12T22:20:46.470Z,2.00
2019-03-12T22:23:20.046Z,2.50
2019-03-12T22:25:49.880Z,2.20
2019-03-12T22:28:19.720Z,2.70
2019-03-12T22:30:49.642Z,2.27
2019-03-12T22:33:19.374Z,2.47
2019-03-12T22:35:49.134Z,2.43
2019-03-12T22:38:20.220Z,2.57
2019-03-12T22:40:49.900Z,2.20
2019-03-12T22:43:19.710Z,2.43
2019-03-12T22:45:49.792Z,2.23
2019-03-12T22:48:19.740Z,2.30
2019-03-12T22:50:49.484Z,2.40
2019-03-12T22:53:19.306Z,2.03
2019-03-12T22:55:49.258Z,2.60
2019-03-12T22:58:19.041Z,2.00
2019-03-12T23:00:48.885Z,2.40
2019-03-12T23:03:18.760Z,1.80
2019-03-12T23:05:48.561Z,2.30
2019-03-12T23:08:18.323Z,2.20
2019-03-12T23:10:48.730Z,2.50
2019-03-12T23:13:18.860Z,2.70
2019-03-12T23:15:48.955Z,2.30
2019-03-12T23:18:18.826Z,2.20
2019-03-12T23:20:48.792Z,2.07
2019-03-12T23:23:18.627Z,2.97
2019-03-12T23:25:48.875Z,3.77
2019-03-12T23:28:18.772Z,2.60
2019-03-12T23:30:48.758Z,2.73
2019-03-12T23:33:18.654Z,3.53
2019-03-12T23:35:48.294Z,3.03
2019-03-12T23:38:18.444Z,3.40
2019-03-12T23:40:48.386Z,3.13
2019-03-12T23:43:18.179Z,3.47
2019-03-12T23:45:47.957Z,3.03
2019-03-12T23:48:17.778Z,3.20
2019-03-12T23:50:47.637Z,2.93
2019-03-12T23:53:17.465Z,3.40
2019-03-12T23:55:47.217Z,3.27
2019-03-12T23:58:17.088Z,4.37
